Terminal Aerodrome Forecast
Issued by NWS

Home | Current Version | Previous Version | Text Only | Print | Product List | Glossary On
Versions: 1 2 3 4 5 6 7 8 9 10 11 12 13
000
FTUS43 KMQT 221100
TAFSAW
TAF
KSAW 221135Z 2212/2312 20008G16KT P6SM BKN040
      TEMPO 2212/2216 3SM TSRA BR BKN030CB
     FM221600 21014G23KT P6SM BKN025
     FM221900 25016G24KT P6SM BKN020
     FM222300 33015G24KT P6SM BKN040
     FM230400 36010KT P6SM SCT060
      AMD LTD TO CLD VIS AND WIND 2302/2310=

USA.gov is the U.S. government's official web portal to all federal, state and local government web resources and services.